This is the latest recevied weather packets stored in our database for station/object OH2EGI-2. If no packets are shown the sender has not sent any weather packets the latest 10 day(s).
| Time | Temp. | Humidity | Pressure | Rain* | Wind** | Luminosity | Snow |
|---|---|---|---|---|---|---|---|
| 1777646812 | 30° C | 26% | 1008.3 hPa | 0 mm | - | - | - |
| 1777646512 | 29.44° C | 26% | 1008.2 hPa | 0 mm | - | - | - |
| 1777646212 | 28.33° C | 27% | 1008.3 hPa | 0 mm | - | - | - |
| 1777645912 | 27.22° C | 29% | 1008.4 hPa | 0 mm | - | - | - |
| 1777645612 | 26.11° C | 29% | 1008.5 hPa | 0 mm | - | - | - |
| 1777645312 | 27.22° C | 28% | 1008.6 hPa | 0 mm | - | - | - |
| 1777645012 | 27.78° C | 28% | 1008.6 hPa | 0 mm | - | - | - |
| 1777644712 | 26.67° C | 28% | 1008.6 hPa | 0 mm | - | - | - |
| 1777644412 | 26.11° C | 30% | 1008.6 hPa | 0 mm | - | - | - |
| 1777644112 | 25° C | 31% | 1008.7 hPa | 0 mm | - | - | - |
| 1777643812 | 24.44° C | 31% | 1008.6 hPa | 0 mm | - | - | - |
| 1777643512 | 24.44° C | 31% | 1008.8 hPa | 0 mm | - | - | - |
| 1777643212 | 24.44° C | 29% | 1008.9 hPa | 0 mm | - | - | - |
| 1777642912 | 24.44° C | 29% | 1009 hPa | 0 mm | - | - | - |
| 1777642612 | 26.11° C | 27% | 1009 hPa | 0 mm | - | - | - |
| 1777642312 | 27.78° C | 26% | 1008.9 hPa | 0 mm | - | - | - |
| 1777642012 | 28.89° C | 23% | 1009 hPa | 0 mm | - | - | - |
| 1777641712 | 30° C | 22% | 1009.1 hPa | 0 mm | - | - | - |
| 1777641412 | 30° C | 21% | 1009.1 hPa | 0 mm | - | - | - |
| 1777641112 | 30.56° C | 21% | 1009.1 hPa | 0 mm | - | - | - |
| 1777640812 | 31.67° C | 20% | 1009.3 hPa | 0 mm | - | - | - |
| 1777640512 | 32.22° C | 21% | 1009.4 hPa | 0 mm | - | - | - |
| 1777640212 | 32.22° C | 21% | 1009.5 hPa | 0 mm | - | - | - |
| 1777639912 | 32.22° C | 22% | 1009.5 hPa | 0 mm | - | - | - |
| 1777639612 | 31.67° C | 22% | 1009.6 hPa | 0 mm | - | - | - |
* Rain latest hour (hover to see other rain measurements)
** Current wind speed in m/s (hover to see current wind gust speed)